Walleye — V7GU7 — position and weather

sailwx.info

Track history (hours):
 
Tides and Currents Weather Stations Pressure Air Temp Water Temp Dewpoint Dewpoint Depression Visibility Wind Speed Wind Dir Waves Ship Positions

Walleye

Last reported at 2017-Dec-11 15:17 UTC. Time now 2017-Dec-12 08:36 UTC.
Position N 40°36' W 074°02'.

Length 228 m; draft 10.6 m.

Type: Tanker. MMSI: 538005764.

Date/timePositionNaut miles runAvg speedWind from/ knotsBaromVisibWave heightAir tempDewpointWater temp
2017-Dec-11 15:17N 40°36' W 074°02'0 0.0
2017-Dec-11 14:44N 40°36' W 074°02'0 0.0
2017-Dec-11 14:20N 40°36' W 074°02'0 0.0
2017-Dec-11 13:59N 40°36' W 074°02'0 0.0
2017-Dec-11 13:20N 40°36' W 074°02'0 0.0
2017-Dec-11 12:56N 40°36' W 074°02'0 0.0
2017-Dec-11 12:23N 40°36' W 074°02'0 0.0
2017-Dec-11 11:29N 40°36' W 074°02'0 0.1
2017-Dec-11 10:35N 40°36' W 074°02'0 0.2
2017-Dec-11 10:26N 40°36' W 074°02'0 0.3
2017-Dec-11 09:56N 40°36' W 074°02'0 0.0
2017-Dec-11 06:44N 40°36' W 074°02'0 0.0
2017-Dec-11 05:35N 40°36' W 074°02'0 0.1
2017-Dec-11 04:11N 40°36' W 074°02'0 0.3
2017-Dec-11 03:53N 40°36' W 074°02'0 0.1
2017-Dec-11 03:29N 40°36' W 074°02'0 0.1
2017-Dec-11 02:56N 40°36' W 074°02'0 0.0
2017-Dec-11 02:17N 40°36' W 074°02'0 0.0
2017-Dec-11 01:53N 40°36' W 074°02'0 0.0
2017-Dec-11 01:20N 40°36' W 074°02'0 0.0
2017-Dec-11 00:59N 40°36' W 074°02'0 0.1
2017-Dec-11 00:26N 40°36' W 074°02'0 0.0
2017-Dec-10 23:59N 40°36' W 074°02'0 0.0
2017-Dec-10 23:29N 40°36' W 074°02'0 0.0
2017-Dec-10 22:50N 40°36' W 074°02'0 0.0
2017-Dec-10 22:29N 40°36' W 074°02'0 0.0
2017-Dec-10 21:59N 40°36' W 074°02'0 0.2
2017-Dec-10 21:20N 40°36' W 074°02'0 0.3
2017-Dec-10 20:50N 40°36' W 074°02'0 0.2
2017-Dec-10 20:29N 40°36' W 074°02'0 0.1
2017-Dec-10 19:59N 40°36' W 074°02'0 0.0
2017-Dec-10 19:23N 40°36' W 074°02'0 0.0
2017-Dec-10 18:50N 40°36' W 074°02'0 0.0
2017-Dec-10 18:26N 40°36' W 074°02'0 0.0
2017-Dec-10 17:59N 40°36' W 074°02'0 0.2
2017-Dec-10 17:26N 40°36' W 074°02'0 0.1
2017-Dec-10 16:59N 40°36' W 074°02'0 0.2
2017-Dec-10 16:29N 40°36' W 074°02'0 0.3
2017-Dec-10 15:56N 40°36' W 074°02'0 0.1
2017-Dec-10 15:29N 40°36' W 074°02'0 0.0
2017-Dec-10 14:59N 40°36' W 074°02'0 0.0
2017-Dec-10 14:29N 40°36' W 074°02'0 0.0
2017-Dec-10 13:59N 40°36' W 074°02'0 0.0
2017-Dec-10 13:29N 40°36' W 074°02'0 0.0
2017-Dec-10 12:59N 40°36' W 074°02'0 0.1
2017-Dec-10 12:29N 40°36' W 074°02'0 0.1
2017-Dec-10 11:59N 40°36' W 074°02'0 0.0
2017-Dec-10 11:29N 40°36' W 074°02'0 0.0
2017-Dec-10 10:59N 40°36' W 074°02'0 0.1
2017-Dec-10 10:29N 40°36' W 074°02'0 0.0
2017-Dec-10 09:59N 40°36' W 074°02'0 0.1
2017-Dec-10 09:23N 40°36' W 074°02'1 3.6
2017-Dec-10 09:00N 40°34' W 074°02'3 6.3
2017-Dec-10 08:30N 40°31' W 074°00'4 8.5
2017-Dec-10 08:00N 40°29' W 073°55'4 8.5
2017-Dec-10 07:30N 40°28' W 073°50'3 5.4
2017-Dec-10 07:01N 40°27' W 073°47'4 6.6
2017-Dec-10 06:28N 40°24' W 073°43'  
Track history (hours):
 
Tides and Currents Weather Stations Pressure Air Temp Water Temp Dewpoint Dewpoint Depression Visibility Wind Speed Wind Dir Waves Ship Positions

Walleye

Last reported at 2017-Dec-11 15:17 UTC. Time now 2017-Dec-12 08:36 UTC.
Position N 40°36' W 074°02'.

Length 228 m; draft 10.6 m.

Type: Tanker. MMSI: 538005764.

Date/timePositionNaut miles runAvg speedWind from/ knotsBaromVisibWave heightAir tempDewpointWater temp
2017-Dec-11 15:17N 40°36' W 074°02'0 0.0
2017-Dec-11 14:44N 40°36' W 074°02'0 0.0
2017-Dec-11 14:20N 40°36' W 074°02'0 0.0
2017-Dec-11 13:59N 40°36' W 074°02'0 0.0
2017-Dec-11 13:20N 40°36' W 074°02'0 0.0
2017-Dec-11 12:56N 40°36' W 074°02'0 0.0
2017-Dec-11 12:23N 40°36' W 074°02'0 0.0
2017-Dec-11 11:29N 40°36' W 074°02'0 0.1
2017-Dec-11 10:35N 40°36' W 074°02'0 0.2
2017-Dec-11 10:26N 40°36' W 074°02'0 0.3
2017-Dec-11 09:56N 40°36' W 074°02'0 0.0
2017-Dec-11 06:44N 40°36' W 074°02'0 0.0
2017-Dec-11 05:35N 40°36' W 074°02'0 0.1
2017-Dec-11 04:11N 40°36' W 074°02'0 0.3
2017-Dec-11 03:53N 40°36' W 074°02'0 0.1
2017-Dec-11 03:29N 40°36' W 074°02'0 0.1
2017-Dec-11 02:56N 40°36' W 074°02'0 0.0
2017-Dec-11 02:17N 40°36' W 074°02'0 0.0
2017-Dec-11 01:53N 40°36' W 074°02'0 0.0
2017-Dec-11 01:20N 40°36' W 074°02'0 0.0
2017-Dec-11 00:59N 40°36' W 074°02'0 0.1
2017-Dec-11 00:26N 40°36' W 074°02'0 0.0
2017-Dec-10 23:59N 40°36' W 074°02'0 0.0
2017-Dec-10 23:29N 40°36' W 074°02'0 0.0
2017-Dec-10 22:50N 40°36' W 074°02'0 0.0
2017-Dec-10 22:29N 40°36' W 074°02'0 0.0
2017-Dec-10 21:59N 40°36' W 074°02'0 0.2
2017-Dec-10 21:20N 40°36' W 074°02'0 0.3
2017-Dec-10 20:50N 40°36' W 074°02'0 0.2
2017-Dec-10 20:29N 40°36' W 074°02'0 0.1
2017-Dec-10 19:59N 40°36' W 074°02'0 0.0
2017-Dec-10 19:23N 40°36' W 074°02'0 0.0
2017-Dec-10 18:50N 40°36' W 074°02'0 0.0
2017-Dec-10 18:26N 40°36' W 074°02'0 0.0
2017-Dec-10 17:59N 40°36' W 074°02'0 0.2
2017-Dec-10 17:26N 40°36' W 074°02'0 0.1
2017-Dec-10 16:59N 40°36' W 074°02'0 0.2
2017-Dec-10 16:29N 40°36' W 074°02'0 0.3
2017-Dec-10 15:56N 40°36' W 074°02'0 0.1
2017-Dec-10 15:29N 40°36' W 074°02'0 0.0
2017-Dec-10 14:59N 40°36' W 074°02'0 0.0
2017-Dec-10 14:29N 40°36' W 074°02'0 0.0
2017-Dec-10 13:59N 40°36' W 074°02'0 0.0
2017-Dec-10 13:29N 40°36' W 074°02'0 0.0
2017-Dec-10 12:59N 40°36' W 074°02'0 0.1
2017-Dec-10 12:29N 40°36' W 074°02'0 0.1
2017-Dec-10 11:59N 40°36' W 074°02'0 0.0
2017-Dec-10 11:29N 40°36' W 074°02'0 0.0
2017-Dec-10 10:59N 40°36' W 074°02'0 0.1
2017-Dec-10 10:29N 40°36' W 074°02'0 0.0
2017-Dec-10 09:59N 40°36' W 074°02'0 0.1
2017-Dec-10 09:23N 40°36' W 074°02'1 3.6
2017-Dec-10 09:00N 40°34' W 074°02'3 6.3
2017-Dec-10 08:30N 40°31' W 074°00'4 8.5
2017-Dec-10 08:00N 40°29' W 073°55'4 8.5
2017-Dec-10 07:30N 40°28' W 073°50'3 5.4
2017-Dec-10 07:01N 40°27' W 073°47'4 6.6
2017-Dec-10 06:28N 40°24' W 073°43'  

Dump ship's entire track history